SWA158 KDEN-KLAX
Flight info
| Callsign | SWA158 |
|---|---|
| Flight time | 2h 18m |
| Altitude | 36000 |
| Route | CONNR8 WERNR ZAKRY CHESZ Q88 HAKMN ANJLL4 |
| Aircraft | B737/M-SADE2E3GIJ4RWZ/LB1D1 |
Departure
| Time | 2026-05-05 08:37 |
|---|---|
| Airport | Denver International Airport (KDEN) |
Arrival
| Time | 2026-05-05 10:55 |
|---|---|
| Airport | Los Angeles International Airport (KLAX) |
| Time | Latitude | Longitude | Altitude | Speed | Heading |
|---|---|---|---|---|---|
| 2026-05-05 08:13 | 39.86254 | -104.66750 | 5372 ft | 0 kts | 0° |
| 2026-05-05 08:26 | 39.86243 | -104.66750 | 5372 ft | 4 kts | 359° |
| 2026-05-05 08:27 | 39.86216 | -104.66748 | 5372 ft | 4 kts | 345° |
| 2026-05-05 08:27 | 39.86194 | -104.66733 | 5373 ft | 4 kts | 308° |
| 2026-05-05 08:27 | 39.86185 | -104.66708 | 5371 ft | 1 kts | 269° |
| 2026-05-05 08:27 | 39.86185 | -104.66703 | 5371 ft | 0 kts | 269° |
| 2026-05-05 08:30 | 39.86185 | -104.66706 | 5371 ft | 1 kts | 269° |
| 2026-05-05 08:30 | 39.86185 | -104.66762 | 5376 ft | 10 kts | 269° |
| 2026-05-05 08:30 | 39.86185 | -104.66881 | 5376 ft | 16 kts | 270° |
| 2026-05-05 08:30 | 39.86186 | -104.67042 | 5376 ft | 19 kts | 270° |
| 2026-05-05 08:31 | 39.86185 | -104.67214 | 5376 ft | 17 kts | 265° |
| 2026-05-05 08:31 | 39.86131 | -104.67340 | 5376 ft | 16 kts | 268° |
| 2026-05-05 08:31 | 39.86133 | -104.67484 | 5375 ft | 16 kts | 271° |
| 2026-05-05 08:31 | 39.86134 | -104.67644 | 5373 ft | 19 kts | 270° |
| 2026-05-05 08:32 | 39.86134 | -104.67824 | 5373 ft | 21 kts | 270° |
| 2026-05-05 08:32 | 39.86136 | -104.68020 | 5372 ft | 23 kts | 270° |
| 2026-05-05 08:32 | 39.86137 | -104.68187 | 5373 ft | 11 kts | 271° |
| 2026-05-05 08:32 | 39.86138 | -104.68307 | 5368 ft | 15 kts | 271° |
| 2026-05-05 08:33 | 39.86137 | -104.68460 | 5368 ft | 16 kts | 260° |
| 2026-05-05 08:33 | 39.86043 | -104.68509 | 5368 ft | 16 kts | 180° |
| 2026-05-05 08:33 | 39.85916 | -104.68510 | 5367 ft | 20 kts | 180° |
| 2026-05-05 08:33 | 39.85761 | -104.68512 | 5369 ft | 25 kts | 181° |
| 2026-05-05 08:34 | 39.85581 | -104.68514 | 5372 ft | 26 kts | 180° |
| 2026-05-05 08:34 | 39.85409 | -104.68516 | 5376 ft | 24 kts | 180° |
| 2026-05-05 08:34 | 39.85301 | -104.68516 | 5376 ft | 23 kts | 180° |
| 2026-05-05 08:34 | 39.85210 | -104.68546 | 5373 ft | 13 kts | 238° |
| 2026-05-05 08:35 | 39.85202 | -104.68702 | 5367 ft | 21 kts | 269° |
| 2026-05-05 08:35 | 39.85198 | -104.68934 | 5357 ft | 29 kts | 269° |
| 2026-05-05 08:35 | 39.85197 | -104.69226 | 5344 ft | 30 kts | 271° |
| 2026-05-05 08:35 | 39.85201 | -104.69437 | 5337 ft | 19 kts | 270° |
| 2026-05-05 08:36 | 39.85202 | -104.69590 | 5337 ft | 13 kts | 274° |
| 2026-05-05 08:36 | 39.85234 | -104.69659 | 5335 ft | 7 kts | 353° |
| 2026-05-05 08:36 | 39.85292 | -104.69658 | 5336 ft | 16 kts | 0° |
| 2026-05-05 08:36 | 39.85636 | -104.69654 | 5336 ft | 84 kts | 0° |
| 2026-05-05 08:37 | 39.86417 | -104.69634 | 5333 ft | 137 kts | 357° |
| 2026-05-05 08:37 | 39.87495 | -104.69652 | 5487 ft | 165 kts | 1° |
| 2026-05-05 08:37 | 39.88621 | -104.69637 | 6166 ft | 164 kts | 3° |
| 2026-05-05 08:37 | 39.89775 | -104.69628 | 6788 ft | 166 kts | 355° |
| 2026-05-05 08:38 | 39.90820 | -104.70307 | 7167 ft | 179 kts | 307° |
| 2026-05-05 08:38 | 39.91212 | -104.71895 | 7403 ft | 198 kts | 262° |
| 2026-05-05 08:38 | 39.90711 | -104.73631 | 7594 ft | 215 kts | 241° |
| 2026-05-05 08:38 | 39.89995 | -104.75453 | 7747 ft | 236 kts | 241° |
| 2026-05-05 08:39 | 39.89220 | -104.77435 | 7960 ft | 253 kts | 242° |
| 2026-05-05 08:39 | 39.88423 | -104.79501 | 8438 ft | 257 kts | 242° |
| 2026-05-05 08:39 | 39.87633 | -104.81585 | 8990 ft | 257 kts | 242° |
| 2026-05-05 08:39 | 39.86850 | -104.83671 | 9532 ft | 256 kts | 242° |
| 2026-05-05 08:40 | 39.86068 | -104.85763 | 9948 ft | 261 kts | 242° |
| 2026-05-05 08:40 | 39.85242 | -104.87971 | 9959 ft | 282 kts | 242° |
| 2026-05-05 08:40 | 39.84348 | -104.90374 | 9968 ft | 307 kts | 244° |
| 2026-05-05 08:40 | 39.83687 | -104.93004 | 10699 ft | 300 kts | 255° |
| 2026-05-05 08:41 | 39.83212 | -104.95575 | 11722 ft | 286 kts | 256° |
| 2026-05-05 08:41 | 39.82754 | -104.98036 | 12466 ft | 283 kts | 257° |
| 2026-05-05 08:41 | 39.82267 | -105.00560 | 13099 ft | 285 kts | 257° |
| 2026-05-05 08:41 | 39.81774 | -105.03070 | 13672 ft | 287 kts | 257° |
| 2026-05-05 08:42 | 39.81279 | -105.05553 | 14180 ft | 288 kts | 257° |
| 2026-05-05 08:42 | 39.80764 | -105.08121 | 14648 ft | 291 kts | 257° |
| 2026-05-05 08:42 | 39.80250 | -105.10678 | 15090 ft | 294 kts | 257° |
| 2026-05-05 08:42 | 39.79731 | -105.13254 | 15540 ft | 296 kts | 257° |
| 2026-05-05 08:43 | 39.79207 | -105.15855 | 15983 ft | 298 kts | 257° |
| 2026-05-05 08:43 | 39.78686 | -105.18438 | 16412 ft | 301 kts | 257° |
| 2026-05-05 08:43 | 39.78153 | -105.21078 | 16833 ft | 303 kts | 257° |
| 2026-05-05 08:43 | 39.77615 | -105.23736 | 17238 ft | 305 kts | 257° |
| 2026-05-05 08:44 | 39.77072 | -105.26417 | 17631 ft | 308 kts | 257° |
| 2026-05-05 08:44 | 39.76524 | -105.29115 | 18010 ft | 310 kts | 257° |
| 2026-05-05 08:44 | 39.75970 | -105.31828 | 18421 ft | 310 kts | 257° |
| 2026-05-05 08:44 | 39.75415 | -105.34550 | 18735 ft | 313 kts | 257° |
| 2026-05-05 08:45 | 39.74858 | -105.37277 | 19193 ft | 312 kts | 256° |
| 2026-05-05 08:45 | 39.74300 | -105.40005 | 19934 ft | 315 kts | 256° |
| 2026-05-05 08:45 | 39.73735 | -105.42766 | 20752 ft | 317 kts | 256° |
| 2026-05-05 08:45 | 39.73158 | -105.45584 | 21204 ft | 333 kts | 256° |
| 2026-05-05 08:46 | 39.72542 | -105.48588 | 21367 ft | 354 kts | 256° |
| 2026-05-05 08:46 | 39.71898 | -105.51723 | 21917 ft | 362 kts | 256° |
| 2026-05-05 08:46 | 39.71245 | -105.54895 | 22672 ft | 365 kts | 256° |
| 2026-05-05 08:46 | 39.70580 | -105.58131 | 23460 ft | 367 kts | 256° |
| 2026-05-05 08:47 | 39.69924 | -105.61342 | 24144 ft | 368 kts | 256° |
| 2026-05-05 08:47 | 39.69271 | -105.64541 | 24903 ft | 365 kts | 255° |
| 2026-05-05 08:47 | 39.68652 | -105.67734 | 25581 ft | 367 kts | 257° |
| 2026-05-05 08:47 | 39.68146 | -105.71046 | 25780 ft | 382 kts | 259° |
| 2026-05-05 08:48 | 39.67691 | -105.74479 | 26150 ft | 389 kts | 260° |
| 2026-05-05 08:48 | 39.67249 | -105.77940 | 26794 ft | 388 kts | 260° |
| 2026-05-05 08:48 | 39.66805 | -105.81382 | 27522 ft | 386 kts | 259° |
| 2026-05-05 08:48 | 39.66356 | -105.84806 | 28213 ft | 384 kts | 259° |
| 2026-05-05 08:49 | 39.65904 | -105.88191 | 29103 ft | 377 kts | 259° |
| 2026-05-05 08:49 | 39.65457 | -105.91489 | 30142 ft | 366 kts | 259° |
| 2026-05-05 08:49 | 39.65017 | -105.94710 | 30968 ft | 359 kts | 259° |
| 2026-05-05 08:49 | 39.64942 | -105.95252 | 31081 ft | 358 kts | 259° |
| 2026-05-05 08:50 | 39.64505 | -105.98430 | 31684 ft | 357 kts | 259° |
| 2026-05-05 08:50 | 39.64066 | -106.01603 | 32126 ft | 360 kts | 259° |
| 2026-05-05 08:50 | 39.63620 | -106.04817 | 32532 ft | 362 kts | 259° |
| 2026-05-05 08:50 | 39.63176 | -106.08015 | 33197 ft | 358 kts | 259° |
| 2026-05-05 08:51 | 39.62738 | -106.11164 | 33866 ft | 352 kts | 259° |
| 2026-05-05 08:51 | 39.62302 | -106.14282 | 34302 ft | 351 kts | 258° |
| 2026-05-05 08:51 | 39.61867 | -106.17392 | 34723 ft | 349 kts | 259° |
| 2026-05-05 08:51 | 39.61434 | -106.20484 | 35145 ft | 348 kts | 259° |
| 2026-05-05 08:52 | 39.61001 | -106.23570 | 35576 ft | 347 kts | 259° |
| 2026-05-05 08:52 | 39.60567 | -106.26652 | 35837 ft | 349 kts | 259° |
| 2026-05-05 08:52 | 39.60130 | -106.29747 | 35820 ft | 347 kts | 258° |
| 2026-05-05 08:53 | 39.59264 | -106.35872 | 35875 ft | 345 kts | 259° |
| 2026-05-05 08:53 | 39.58397 | -106.42006 | 35880 ft | 347 kts | 259° |
| 2026-05-05 08:54 | 39.57519 | -106.48154 | 35865 ft | 347 kts | 259° |
| 2026-05-05 08:54 | 39.56641 | -106.54309 | 35885 ft | 348 kts | 259° |
| 2026-05-05 08:55 | 39.55754 | -106.60485 | 35917 ft | 349 kts | 259° |
| 2026-05-05 08:55 | 39.54847 | -106.66676 | 35892 ft | 350 kts | 257° |
| 2026-05-05 08:56 | 39.53194 | -106.72605 | 35884 ft | 351 kts | 249° |
| 2026-05-05 08:56 | 39.51299 | -106.78439 | 35904 ft | 351 kts | 249° |
| 2026-05-05 08:57 | 39.49434 | -106.84265 | 35927 ft | 350 kts | 250° |
| 2026-05-05 08:57 | 39.47592 | -106.90086 | 36007 ft | 348 kts | 250° |
| 2026-05-05 08:58 | 39.45760 | -106.95893 | 36005 ft | 349 kts | 250° |
| 2026-05-05 08:58 | 39.43924 | -107.01710 | 35976 ft | 349 kts | 250° |
| 2026-05-05 08:59 | 39.42089 | -107.07514 | 35945 ft | 350 kts | 250° |
| 2026-05-05 08:59 | 39.40240 | -107.13349 | 35927 ft | 351 kts | 250° |
| 2026-05-05 09:00 | 39.38383 | -107.19192 | 35905 ft | 352 kts | 249° |
| 2026-05-05 09:00 | 39.36368 | -107.24971 | 35891 ft | 353 kts | 247° |
| 2026-05-05 09:01 | 39.34229 | -107.30683 | 35875 ft | 354 kts | 247° |
| 2026-05-05 09:01 | 39.32081 | -107.36404 | 35854 ft | 354 kts | 247° |
| 2026-05-05 09:02 | 39.29947 | -107.42114 | 35854 ft | 353 kts | 246° |
| 2026-05-05 09:02 | 39.27815 | -107.47827 | 35843 ft | 354 kts | 246° |
| 2026-05-05 09:03 | 39.25677 | -107.53551 | 35831 ft | 354 kts | 246° |
| 2026-05-05 09:03 | 39.23539 | -107.59268 | 35848 ft | 354 kts | 246° |
| 2026-05-05 09:04 | 39.21395 | -107.64991 | 35815 ft | 354 kts | 246° |
| 2026-05-05 09:04 | 39.19248 | -107.70709 | 35831 ft | 354 kts | 246° |
| 2026-05-05 09:05 | 39.17099 | -107.76423 | 35807 ft | 354 kts | 245° |
| 2026-05-05 09:05 | 39.14947 | -107.82135 | 35793 ft | 354 kts | 245° |
| 2026-05-05 09:06 | 39.12798 | -107.87828 | 35806 ft | 354 kts | 245° |
| 2026-05-05 09:06 | 39.10639 | -107.93534 | 35801 ft | 355 kts | 245° |
| 2026-05-05 09:07 | 39.08475 | -107.99244 | 35814 ft | 355 kts | 245° |
| 2026-05-05 09:07 | 39.06304 | -108.04962 | 35812 ft | 356 kts | 245° |
| 2026-05-05 09:08 | 39.04131 | -108.10673 | 35810 ft | 355 kts | 245° |
| 2026-05-05 09:08 | 39.01967 | -108.16351 | 35819 ft | 353 kts | 245° |
| 2026-05-05 09:09 | 38.99810 | -108.22000 | 35824 ft | 351 kts | 245° |
| 2026-05-05 09:09 | 38.97654 | -108.27635 | 35800 ft | 351 kts | 245° |
| 2026-05-05 09:10 | 38.95502 | -108.33251 | 35809 ft | 350 kts | 245° |
| 2026-05-05 09:10 | 38.93354 | -108.38844 | 35820 ft | 349 kts | 245° |
| 2026-05-05 09:11 | 38.91206 | -108.44430 | 35810 ft | 349 kts | 245° |
| 2026-05-05 09:11 | 38.89053 | -108.50015 | 35810 ft | 349 kts | 245° |
| 2026-05-05 09:12 | 38.86894 | -108.55606 | 35800 ft | 350 kts | 245° |
| 2026-05-05 09:12 | 38.84729 | -108.61205 | 35784 ft | 351 kts | 244° |
| 2026-05-05 09:13 | 38.82554 | -108.66816 | 35779 ft | 352 kts | 244° |
| 2026-05-05 09:13 | 38.80374 | -108.72431 | 35758 ft | 353 kts | 244° |
| 2026-05-05 09:14 | 38.78183 | -108.78064 | 35768 ft | 353 kts | 244° |
| 2026-05-05 09:14 | 38.75985 | -108.83703 | 35741 ft | 354 kts | 244° |
| 2026-05-05 09:15 | 38.74157 | -108.88388 | 35773 ft | 354 kts | 244° |
| 2026-05-05 09:15 | 38.71950 | -108.94022 | 35756 ft | 354 kts | 244° |
| 2026-05-05 09:16 | 38.69753 | -108.99637 | 35766 ft | 351 kts | 244° |
| 2026-05-05 09:16 | 38.67571 | -109.05201 | 35762 ft | 349 kts | 244° |
| 2026-05-05 09:17 | 38.65389 | -109.10749 | 35754 ft | 348 kts | 244° |
| 2026-05-05 09:17 | 38.63218 | -109.16258 | 35757 ft | 346 kts | 244° |
| 2026-05-05 09:18 | 38.61053 | -109.21747 | 35748 ft | 345 kts | 243° |
| 2026-05-05 09:18 | 38.58886 | -109.27232 | 35755 ft | 347 kts | 243° |
| 2026-05-05 09:19 | 38.56702 | -109.32748 | 35753 ft | 348 kts | 244° |
| 2026-05-05 09:19 | 38.54524 | -109.38250 | 35765 ft | 348 kts | 243° |
| 2026-05-05 09:20 | 38.52326 | -109.43771 | 35760 ft | 350 kts | 243° |
| 2026-05-05 09:20 | 38.50116 | -109.49320 | 35745 ft | 351 kts | 243° |
| 2026-05-05 09:21 | 38.47900 | -109.54874 | 35746 ft | 351 kts | 243° |
| 2026-05-05 09:21 | 38.45665 | -109.60466 | 35736 ft | 351 kts | 243° |
| 2026-05-05 09:22 | 38.43481 | -109.65945 | 35733 ft | 349 kts | 243° |
| 2026-05-05 09:22 | 38.41270 | -109.71445 | 35740 ft | 348 kts | 243° |
| 2026-05-05 09:23 | 38.39051 | -109.76971 | 35732 ft | 348 kts | 243° |
| 2026-05-05 09:23 | 38.36856 | -109.82419 | 35755 ft | 348 kts | 242° |
| 2026-05-05 09:24 | 38.34646 | -109.87904 | 35765 ft | 347 kts | 242° |
| 2026-05-05 09:24 | 38.32425 | -109.93407 | 35726 ft | 349 kts | 242° |
| 2026-05-05 09:25 | 38.30196 | -109.98936 | 35759 ft | 348 kts | 242° |
| 2026-05-05 09:25 | 38.27961 | -110.04429 | 35737 ft | 350 kts | 242° |
| 2026-05-05 09:26 | 38.25698 | -110.09897 | 35747 ft | 349 kts | 242° |
| 2026-05-05 09:26 | 38.23433 | -110.15342 | 35740 ft | 348 kts | 241° |
| 2026-05-05 09:27 | 38.21175 | -110.20769 | 35748 ft | 347 kts | 241° |
| 2026-05-05 09:27 | 38.18936 | -110.26141 | 35757 ft | 346 kts | 241° |
| 2026-05-05 09:28 | 38.16671 | -110.31575 | 35750 ft | 345 kts | 241° |
| 2026-05-05 09:28 | 38.14438 | -110.36920 | 35749 ft | 344 kts | 241° |
| 2026-05-05 09:29 | 38.12188 | -110.42301 | 35741 ft | 345 kts | 241° |
| 2026-05-05 09:29 | 38.09930 | -110.47686 | 35765 ft | 345 kts | 241° |
| 2026-05-05 09:30 | 38.07668 | -110.53073 | 35755 ft | 346 kts | 240° |
| 2026-05-05 09:30 | 38.05398 | -110.58469 | 35760 ft | 347 kts | 240° |
| 2026-05-05 09:31 | 38.03121 | -110.63874 | 35760 ft | 347 kts | 240° |
| 2026-05-05 09:31 | 38.00840 | -110.69280 | 35751 ft | 348 kts | 240° |
| 2026-05-05 09:32 | 37.98557 | -110.74680 | 35756 ft | 348 kts | 240° |
| 2026-05-05 09:32 | 37.96270 | -110.80083 | 35764 ft | 348 kts | 240° |
| 2026-05-05 09:33 | 37.93975 | -110.85488 | 35773 ft | 349 kts | 240° |
| 2026-05-05 09:33 | 37.91675 | -110.90906 | 35782 ft | 349 kts | 240° |
| 2026-05-05 09:34 | 37.89379 | -110.96304 | 35783 ft | 348 kts | 240° |
| 2026-05-05 09:34 | 37.87090 | -111.01681 | 35783 ft | 346 kts | 240° |
| 2026-05-05 09:35 | 37.84808 | -111.07020 | 35786 ft | 344 kts | 240° |
| 2026-05-05 09:35 | 37.81400 | -111.14981 | 35812 ft | 343 kts | 239° |
| 2026-05-05 09:36 | 37.79123 | -111.20290 | 35793 ft | 344 kts | 239° |
| 2026-05-05 09:36 | 37.76839 | -111.25604 | 35794 ft | 344 kts | 239° |
| 2026-05-05 09:37 | 37.74554 | -111.30913 | 35796 ft | 344 kts | 239° |
| 2026-05-05 09:37 | 37.72264 | -111.36231 | 35800 ft | 345 kts | 239° |
| 2026-05-05 09:38 | 37.69967 | -111.41555 | 35810 ft | 346 kts | 239° |
| 2026-05-05 09:38 | 37.67647 | -111.46923 | 35810 ft | 346 kts | 239° |
| 2026-05-05 09:39 | 37.65352 | -111.52221 | 35810 ft | 346 kts | 239° |
| 2026-05-05 09:39 | 37.63041 | -111.57550 | 35797 ft | 346 kts | 239° |
| 2026-05-05 09:40 | 37.60732 | -111.62864 | 35806 ft | 346 kts | 239° |
| 2026-05-05 09:40 | 37.58423 | -111.68170 | 35810 ft | 345 kts | 239° |
| 2026-05-05 09:41 | 37.56113 | -111.73468 | 35822 ft | 345 kts | 239° |
| 2026-05-05 09:41 | 37.53801 | -111.78766 | 35839 ft | 345 kts | 239° |
| 2026-05-05 09:42 | 37.51481 | -111.84070 | 35871 ft | 346 kts | 239° |
| 2026-05-05 09:42 | 37.48951 | -111.89208 | 35856 ft | 345 kts | 233° |
| 2026-05-05 09:43 | 37.46102 | -111.94037 | 35863 ft | 342 kts | 233° |
| 2026-05-05 09:43 | 37.43276 | -111.98824 | 35859 ft | 340 kts | 233° |
| 2026-05-05 09:44 | 37.40473 | -112.03598 | 35849 ft | 338 kts | 233° |
| 2026-05-05 09:44 | 37.37689 | -112.08347 | 35847 ft | 337 kts | 233° |
| 2026-05-05 09:45 | 37.34914 | -112.13088 | 35874 ft | 338 kts | 232° |
| 2026-05-05 09:45 | 37.32119 | -112.17852 | 35834 ft | 338 kts | 232° |
| 2026-05-05 09:46 | 37.29327 | -112.22617 | 35855 ft | 340 kts | 233° |
| 2026-05-05 09:46 | 37.26521 | -112.27406 | 35841 ft | 341 kts | 232° |
| 2026-05-05 09:47 | 37.23706 | -112.32201 | 35845 ft | 342 kts | 232° |
| 2026-05-05 09:47 | 37.20882 | -112.37000 | 35856 ft | 342 kts | 232° |
| 2026-05-05 09:48 | 37.18056 | -112.41797 | 35846 ft | 342 kts | 232° |
| 2026-05-05 09:48 | 37.15233 | -112.46580 | 35805 ft | 341 kts | 232° |
| 2026-05-05 09:49 | 37.12415 | -112.51350 | 35841 ft | 340 kts | 232° |
| 2026-05-05 09:49 | 37.09594 | -112.56119 | 35844 ft | 341 kts | 232° |
| 2026-05-05 09:50 | 37.06774 | -112.60881 | 35864 ft | 341 kts | 232° |
| 2026-05-05 09:50 | 37.03943 | -112.65648 | 35888 ft | 341 kts | 232° |
| 2026-05-05 09:51 | 37.01128 | -112.70376 | 35907 ft | 341 kts | 232° |
| 2026-05-05 09:51 | 36.98291 | -112.75136 | 35932 ft | 341 kts | 232° |
| 2026-05-05 09:52 | 36.95454 | -112.79891 | 35976 ft | 341 kts | 232° |
| 2026-05-05 09:52 | 36.92609 | -112.84655 | 35983 ft | 342 kts | 232° |
| 2026-05-05 09:53 | 36.89759 | -112.89420 | 35997 ft | 342 kts | 232° |
| 2026-05-05 09:53 | 36.86907 | -112.94181 | 35994 ft | 342 kts | 232° |
| 2026-05-05 09:54 | 36.84055 | -112.98935 | 35988 ft | 342 kts | 232° |
| 2026-05-05 09:54 | 36.81204 | -113.03682 | 35968 ft | 341 kts | 232° |
| 2026-05-05 09:55 | 36.78357 | -113.08415 | 35947 ft | 340 kts | 232° |
| 2026-05-05 09:55 | 36.75517 | -113.13130 | 35941 ft | 340 kts | 232° |
| 2026-05-05 09:56 | 36.72681 | -113.17832 | 35914 ft | 339 kts | 232° |
| 2026-05-05 09:56 | 36.70327 | -113.21730 | 35886 ft | 338 kts | 232° |
| 2026-05-05 09:57 | 36.67498 | -113.26410 | 35853 ft | 339 kts | 232° |
| 2026-05-05 09:57 | 36.64643 | -113.31126 | 35850 ft | 339 kts | 232° |
| 2026-05-05 09:58 | 36.61818 | -113.35819 | 35851 ft | 339 kts | 232° |
| 2026-05-05 09:58 | 36.59110 | -113.40574 | 35849 ft | 339 kts | 233° |
| 2026-05-05 09:59 | 36.56396 | -113.45382 | 35855 ft | 340 kts | 233° |
| 2026-05-05 09:59 | 36.53670 | -113.50189 | 35837 ft | 340 kts | 233° |
| 2026-05-05 10:00 | 36.50937 | -113.54991 | 35844 ft | 340 kts | 233° |
| 2026-05-05 10:00 | 36.48200 | -113.59788 | 35839 ft | 340 kts | 233° |
| 2026-05-05 10:01 | 36.45462 | -113.64578 | 35819 ft | 340 kts | 233° |
| 2026-05-05 10:01 | 36.42724 | -113.69360 | 35830 ft | 339 kts | 232° |
| 2026-05-05 10:02 | 36.39999 | -113.74115 | 35834 ft | 338 kts | 233° |
| 2026-05-05 10:02 | 36.37264 | -113.78878 | 35821 ft | 339 kts | 232° |
| 2026-05-05 10:03 | 36.34526 | -113.83643 | 35821 ft | 339 kts | 232° |
| 2026-05-05 10:03 | 36.31784 | -113.88406 | 35806 ft | 339 kts | 232° |
| 2026-05-05 10:04 | 36.29046 | -113.93155 | 35806 ft | 339 kts | 232° |
| 2026-05-05 10:04 | 36.26307 | -113.97902 | 35810 ft | 338 kts | 232° |
| 2026-05-05 10:05 | 36.23567 | -114.02642 | 35792 ft | 338 kts | 232° |
| 2026-05-05 10:05 | 36.20827 | -114.07375 | 35832 ft | 338 kts | 232° |
| 2026-05-05 10:06 | 36.18086 | -114.12115 | 35801 ft | 339 kts | 232° |
| 2026-05-05 10:06 | 36.15330 | -114.16856 | 35794 ft | 339 kts | 232° |
| 2026-05-05 10:07 | 36.12570 | -114.21605 | 35798 ft | 340 kts | 232° |
| 2026-05-05 10:07 | 36.09802 | -114.26360 | 35791 ft | 341 kts | 232° |
| 2026-05-05 10:08 | 36.06867 | -114.30944 | 35795 ft | 339 kts | 227° |
| 2026-05-05 10:08 | 36.03734 | -114.35270 | 35789 ft | 337 kts | 227° |
| 2026-05-05 10:09 | 36.00584 | -114.39601 | 35812 ft | 336 kts | 227° |
| 2026-05-05 10:09 | 35.97472 | -114.43899 | 35806 ft | 335 kts | 227° |
| 2026-05-05 10:10 | 35.94361 | -114.48198 | 35820 ft | 336 kts | 227° |
| 2026-05-05 10:10 | 35.91238 | -114.52508 | 35823 ft | 337 kts | 227° |
| 2026-05-05 10:11 | 35.88114 | -114.56818 | 35835 ft | 337 kts | 227° |
| 2026-05-05 10:11 | 35.84983 | -114.61133 | 35782 ft | 338 kts | 227° |
| 2026-05-05 10:12 | 35.81841 | -114.65452 | 35846 ft | 339 kts | 227° |
| 2026-05-05 10:12 | 35.78696 | -114.69772 | 35859 ft | 339 kts | 227° |
| 2026-05-05 10:13 | 35.75555 | -114.74076 | 35850 ft | 337 kts | 227° |
| 2026-05-05 10:13 | 35.72448 | -114.78351 | 35878 ft | 338 kts | 227° |
| 2026-05-05 10:14 | 35.69313 | -114.82648 | 35889 ft | 337 kts | 227° |
| 2026-05-05 10:14 | 35.66165 | -114.86950 | 35871 ft | 340 kts | 227° |
| 2026-05-05 10:15 | 35.63014 | -114.91276 | 35895 ft | 340 kts | 227° |
| 2026-05-05 10:15 | 35.59865 | -114.95596 | 35887 ft | 338 kts | 227° |
| 2026-05-05 10:16 | 35.56729 | -114.99892 | 35893 ft | 337 kts | 227° |
| 2026-05-05 10:16 | 35.53594 | -115.04182 | 35914 ft | 338 kts | 227° |
| 2026-05-05 10:17 | 35.50441 | -115.08481 | 35911 ft | 339 kts | 226° |
| 2026-05-05 10:17 | 35.47224 | -115.12708 | 35906 ft | 339 kts | 226° |
| 2026-05-05 10:18 | 35.43981 | -115.16919 | 35906 ft | 339 kts | 226° |
| 2026-05-05 10:18 | 35.40750 | -115.21120 | 35911 ft | 338 kts | 226° |
| 2026-05-05 10:19 | 35.37531 | -115.25308 | 35912 ft | 337 kts | 226° |
| 2026-05-05 10:19 | 35.34323 | -115.29480 | 35926 ft | 336 kts | 226° |
| 2026-05-05 10:20 | 35.31125 | -115.33637 | 35944 ft | 335 kts | 226° |
| 2026-05-05 10:20 | 35.27914 | -115.37803 | 35918 ft | 337 kts | 226° |
| 2026-05-05 10:21 | 35.24684 | -115.41991 | 35930 ft | 339 kts | 226° |
| 2026-05-05 10:21 | 35.21435 | -115.46198 | 35938 ft | 341 kts | 226° |
| 2026-05-05 10:22 | 35.18163 | -115.50429 | 35923 ft | 343 kts | 226° |
| 2026-05-05 10:22 | 35.14882 | -115.54668 | 35925 ft | 343 kts | 226° |
| 2026-05-05 10:23 | 35.11602 | -115.58894 | 35923 ft | 341 kts | 226° |
| 2026-05-05 10:23 | 35.08341 | -115.63067 | 35922 ft | 338 kts | 225° |
| 2026-05-05 10:24 | 35.05101 | -115.67206 | 35927 ft | 337 kts | 225° |
| 2026-05-05 10:24 | 35.01855 | -115.71350 | 35925 ft | 338 kts | 225° |
| 2026-05-05 10:25 | 34.98592 | -115.75510 | 35921 ft | 340 kts | 225° |
| 2026-05-05 10:25 | 34.95316 | -115.79685 | 35915 ft | 342 kts | 225° |
| 2026-05-05 10:26 | 34.92025 | -115.83873 | 35908 ft | 342 kts | 225° |
| 2026-05-05 10:26 | 34.88729 | -115.88062 | 35906 ft | 342 kts | 225° |
| 2026-05-05 10:27 | 34.85433 | -115.92247 | 35901 ft | 342 kts | 225° |
| 2026-05-05 10:27 | 34.82140 | -115.96423 | 35910 ft | 342 kts | 225° |
| 2026-05-05 10:28 | 34.78837 | -116.00608 | 35887 ft | 342 kts | 225° |
| 2026-05-05 10:28 | 34.75543 | -116.04785 | 35891 ft | 342 kts | 225° |
| 2026-05-05 10:29 | 34.72265 | -116.08956 | 35897 ft | 342 kts | 225° |
| 2026-05-05 10:29 | 34.68986 | -116.13136 | 35896 ft | 341 kts | 225° |
| 2026-05-05 10:30 | 34.65708 | -116.17307 | 35894 ft | 341 kts | 225° |
| 2026-05-05 10:30 | 34.62428 | -116.21472 | 35905 ft | 341 kts | 225° |
| 2026-05-05 10:31 | 34.59144 | -116.25638 | 35890 ft | 342 kts | 225° |
| 2026-05-05 10:31 | 34.55851 | -116.29810 | 35869 ft | 343 kts | 225° |
| 2026-05-05 10:32 | 34.54187 | -116.31916 | 35391 ft | 345 kts | 225° |
| 2026-05-05 10:32 | 34.52525 | -116.34019 | 34823 ft | 344 kts | 225° |
| 2026-05-05 10:32 | 34.50873 | -116.36108 | 34298 ft | 342 kts | 225° |
| 2026-05-05 10:32 | 34.49241 | -116.38170 | 33841 ft | 338 kts | 225° |
| 2026-05-05 10:33 | 34.47623 | -116.40214 | 33308 ft | 333 kts | 226° |
| 2026-05-05 10:33 | 34.46033 | -116.42222 | 32905 ft | 327 kts | 226° |
| 2026-05-05 10:33 | 34.44468 | -116.44194 | 32464 ft | 322 kts | 226° |
| 2026-05-05 10:33 | 34.42923 | -116.46139 | 32043 ft | 318 kts | 226° |
| 2026-05-05 10:34 | 34.41518 | -116.48186 | 31651 ft | 316 kts | 234° |
| 2026-05-05 10:34 | 34.40466 | -116.50488 | 31387 ft | 311 kts | 239° |
| 2026-05-05 10:34 | 34.39515 | -116.52826 | 31009 ft | 308 kts | 240° |
| 2026-05-05 10:34 | 34.38580 | -116.55160 | 30590 ft | 308 kts | 240° |
| 2026-05-05 10:35 | 34.37641 | -116.57489 | 30222 ft | 308 kts | 240° |
| 2026-05-05 10:35 | 34.36684 | -116.59839 | 29752 ft | 317 kts | 240° |
| 2026-05-05 10:35 | 34.35681 | -116.62278 | 29264 ft | 329 kts | 240° |
| 2026-05-05 10:35 | 34.34657 | -116.64763 | 28804 ft | 329 kts | 240° |
| 2026-05-05 10:36 | 34.33645 | -116.67218 | 28363 ft | 323 kts | 240° |
| 2026-05-05 10:36 | 34.32660 | -116.69634 | 27980 ft | 317 kts | 241° |
| 2026-05-05 10:36 | 34.31695 | -116.72034 | 27555 ft | 318 kts | 241° |
| 2026-05-05 10:36 | 34.30696 | -116.74518 | 27140 ft | 342 kts | 241° |
| 2026-05-05 10:37 | 34.29986 | -116.76280 | 26845 ft | 360 kts | 241° |
| 2026-05-05 10:37 | 34.28880 | -116.79030 | 26341 ft | 365 kts | 242° |
| 2026-05-05 10:37 | 34.27768 | -116.81798 | 25870 ft | 366 kts | 242° |
| 2026-05-05 10:37 | 34.26641 | -116.84601 | 25395 ft | 365 kts | 242° |
| 2026-05-05 10:38 | 34.25545 | -116.87325 | 24949 ft | 365 kts | 242° |
| 2026-05-05 10:38 | 34.24427 | -116.90096 | 24450 ft | 368 kts | 242° |
| 2026-05-05 10:38 | 34.23288 | -116.92917 | 23960 ft | 370 kts | 242° |
| 2026-05-05 10:38 | 34.22170 | -116.95680 | 23469 ft | 372 kts | 242° |
| 2026-05-05 10:39 | 34.21039 | -116.98498 | 22906 ft | 373 kts | 244° |
| 2026-05-05 10:39 | 34.20129 | -117.01442 | 22622 ft | 366 kts | 250° |
| 2026-05-05 10:39 | 34.19378 | -117.04377 | 22131 ft | 364 kts | 251° |
| 2026-05-05 10:39 | 34.18646 | -117.07304 | 21591 ft | 364 kts | 251° |
| 2026-05-05 10:40 | 34.17888 | -117.10215 | 21096 ft | 363 kts | 250° |
| 2026-05-05 10:40 | 34.17112 | -117.13107 | 20578 ft | 361 kts | 250° |
| 2026-05-05 10:40 | 34.16331 | -117.15982 | 20058 ft | 359 kts | 250° |
| 2026-05-05 10:40 | 34.15548 | -117.18833 | 19634 ft | 357 kts | 250° |
| 2026-05-05 10:41 | 34.14764 | -117.21675 | 19129 ft | 356 kts | 250° |
| 2026-05-05 10:41 | 34.13985 | -117.24500 | 18623 ft | 352 kts | 250° |
| 2026-05-05 10:41 | 34.13217 | -117.27285 | 18101 ft | 347 kts | 251° |
| 2026-05-05 10:41 | 34.12463 | -117.30022 | 17553 ft | 341 kts | 251° |
| 2026-05-05 10:42 | 34.10979 | -117.35396 | 16580 ft | 335 kts | 251° |
| 2026-05-05 10:42 | 34.10255 | -117.38055 | 16114 ft | 332 kts | 252° |
| 2026-05-05 10:42 | 34.09586 | -117.40714 | 15632 ft | 330 kts | 253° |
| 2026-05-05 10:43 | 34.08933 | -117.43365 | 15158 ft | 329 kts | 253° |
| 2026-05-05 10:43 | 34.08279 | -117.46004 | 14668 ft | 328 kts | 253° |
| 2026-05-05 10:43 | 34.07621 | -117.48638 | 14202 ft | 327 kts | 253° |
| 2026-05-05 10:43 | 34.06897 | -117.51233 | 13758 ft | 326 kts | 249° |
| 2026-05-05 10:44 | 34.06011 | -117.53734 | 13313 ft | 323 kts | 246° |
| 2026-05-05 10:44 | 34.05091 | -117.56193 | 12888 ft | 320 kts | 246° |
| 2026-05-05 10:44 | 34.04183 | -117.58627 | 12481 ft | 318 kts | 246° |
| 2026-05-05 10:44 | 34.03293 | -117.61056 | 12084 ft | 316 kts | 246° |
| 2026-05-05 10:45 | 34.02416 | -117.63476 | 11692 ft | 314 kts | 246° |
| 2026-05-05 10:45 | 34.01561 | -117.65846 | 11309 ft | 300 kts | 246° |
| 2026-05-05 10:45 | 34.00769 | -117.68101 | 10939 ft | 285 kts | 250° |
| 2026-05-05 10:45 | 34.00406 | -117.70431 | 10610 ft | 282 kts | 262° |
| 2026-05-05 10:46 | 34.00206 | -117.72772 | 10268 ft | 280 kts | 262° |
| 2026-05-05 10:46 | 34.00001 | -117.75106 | 9916 ft | 280 kts | 262° |
| 2026-05-05 10:46 | 33.99790 | -117.77438 | 9533 ft | 280 kts | 261° |
| 2026-05-05 10:46 | 33.99567 | -117.79762 | 9160 ft | 279 kts | 261° |
| 2026-05-05 10:47 | 33.99341 | -117.82072 | 8805 ft | 277 kts | 261° |
| 2026-05-05 10:47 | 33.99119 | -117.84366 | 8465 ft | 275 kts | 262° |
| 2026-05-05 10:47 | 33.98928 | -117.86653 | 8112 ft | 273 kts | 263° |
| 2026-05-05 10:47 | 33.98747 | -117.88919 | 7777 ft | 270 kts | 263° |
| 2026-05-05 10:48 | 33.98599 | -117.91165 | 7442 ft | 268 kts | 263° |
| 2026-05-05 10:48 | 33.98427 | -117.93389 | 7107 ft | 265 kts | 262° |
| 2026-05-05 10:48 | 33.98218 | -117.95591 | 6778 ft | 264 kts | 262° |
| 2026-05-05 10:48 | 33.97986 | -117.97785 | 6461 ft | 264 kts | 262° |
| 2026-05-05 10:49 | 33.97752 | -117.99971 | 6112 ft | 263 kts | 261° |
| 2026-05-05 10:49 | 33.97519 | -118.02147 | 5770 ft | 261 kts | 262° |
| 2026-05-05 10:49 | 33.97289 | -118.04306 | 5436 ft | 260 kts | 262° |
| 2026-05-05 10:49 | 33.97064 | -118.06429 | 5118 ft | 258 kts | 262° |
| 2026-05-05 10:50 | 33.96838 | -118.08566 | 4778 ft | 256 kts | 263° |
| 2026-05-05 10:50 | 33.96615 | -118.10687 | 4438 ft | 253 kts | 263° |
| 2026-05-05 10:50 | 33.96397 | -118.12750 | 4126 ft | 243 kts | 263° |
| 2026-05-05 10:50 | 33.96189 | -118.14726 | 3787 ft | 233 kts | 263° |
| 2026-05-05 10:51 | 33.95989 | -118.16632 | 3483 ft | 227 kts | 263° |
| 2026-05-05 10:51 | 33.95791 | -118.18515 | 3207 ft | 224 kts | 263° |
| 2026-05-05 10:51 | 33.95601 | -118.20333 | 2939 ft | 214 kts | 263° |
| 2026-05-05 10:51 | 33.95420 | -118.22067 | 2682 ft | 203 kts | 263° |
| 2026-05-05 10:52 | 33.95247 | -118.23719 | 2415 ft | 195 kts | 263° |
| 2026-05-05 10:52 | 33.95082 | -118.25303 | 2161 ft | 187 kts | 263° |
| 2026-05-05 10:52 | 33.94923 | -118.26832 | 1966 ft | 184 kts | 263° |
| 2026-05-05 10:52 | 33.94768 | -118.28320 | 1904 ft | 173 kts | 263° |
| 2026-05-05 10:53 | 33.94624 | -118.29705 | 1754 ft | 161 kts | 263° |
| 2026-05-05 10:53 | 33.94486 | -118.31042 | 1385 ft | 160 kts | 263° |
| 2026-05-05 10:53 | 33.94351 | -118.32344 | 1119 ft | 152 kts | 263° |
| 2026-05-05 10:53 | 33.94220 | -118.33601 | 886 ft | 146 kts | 263° |
| 2026-05-05 10:54 | 33.94097 | -118.34791 | 696 ft | 138 kts | 263° |
| 2026-05-05 10:54 | 33.93987 | -118.35858 | 548 ft | 129 kts | 263° |
| 2026-05-05 10:54 | 33.93877 | -118.36897 | 365 ft | 123 kts | 263° |
| 2026-05-05 10:54 | 33.93773 | -118.37905 | 217 ft | 120 kts | 264° |
| 2026-05-05 10:55 | 33.93669 | -118.38877 | 102 ft | 108 kts | 265° |
| 2026-05-05 10:55 | 33.93596 | -118.39647 | 93 ft | 72 kts | 263° |
| 2026-05-05 10:55 | 33.93554 | -118.40061 | 95 ft | 28 kts | 263° |
| 2026-05-05 10:55 | 33.93536 | -118.40249 | 94 ft | 22 kts | 267° |
| 2026-05-05 10:56 | 33.93540 | -118.40430 | 94 ft | 21 kts | 279° |
| 2026-05-05 10:56 | 33.93581 | -118.40599 | 96 ft | 21 kts | 291° |
| 2026-05-05 10:56 | 33.93594 | -118.40768 | 94 ft | 20 kts | 271° |
| 2026-05-05 10:56 | 33.93648 | -118.40893 | 96 ft | 15 kts | 340° |
| 2026-05-05 10:57 | 33.93748 | -118.40909 | 94 ft | 14 kts | 353° |
| 2026-05-05 10:57 | 33.93844 | -118.40924 | 92 ft | 13 kts | 345° |
| 2026-05-05 10:57 | 33.93859 | -118.41017 | 93 ft | 12 kts | 261° |
| 2026-05-05 10:57 | 33.93850 | -118.41117 | 92 ft | 12 kts | 276° |
| 2026-05-05 10:58 | 33.93911 | -118.41167 | 92 ft | 12 kts | 352° |
| 2026-05-05 10:58 | 33.93990 | -118.41180 | 92 ft | 11 kts | 353° |
| 2026-05-05 10:58 | 33.94077 | -118.41193 | 92 ft | 14 kts | 353° |
| 2026-05-05 10:58 | 33.94183 | -118.41207 | 94 ft | 17 kts | 353° |
| 2026-05-05 10:59 | 33.94307 | -118.41227 | 93 ft | 19 kts | 351° |
| 2026-05-05 10:59 | 33.94447 | -118.41248 | 92 ft | 21 kts | 353° |
| 2026-05-05 10:59 | 33.94601 | -118.41271 | 94 ft | 23 kts | 352° |
| 2026-05-05 10:59 | 33.94750 | -118.41292 | 92 ft | 19 kts | 360° |
| 2026-05-05 11:00 | 33.94805 | -118.41175 | 94 ft | 18 kts | 83° |
| 2026-05-05 11:00 | 33.94819 | -118.41031 | 95 ft | 17 kts | 83° |
| 2026-05-05 11:00 | 33.94834 | -118.40880 | 94 ft | 19 kts | 83° |
| 2026-05-05 11:00 | 33.94851 | -118.40713 | 93 ft | 21 kts | 83° |
| 2026-05-05 11:01 | 33.94870 | -118.40532 | 93 ft | 23 kts | 83° |
| 2026-05-05 11:01 | 33.94888 | -118.40371 | 93 ft | 15 kts | 83° |
| 2026-05-05 11:01 | 33.94860 | -118.40293 | 92 ft | 9 kts | 154° |
| 2026-05-05 11:01 | 33.94827 | -118.40238 | 92 ft | 9 kts | 92° |
| 2026-05-05 11:02 | 33.94813 | -118.40192 | 94 ft | 5 kts | 147° |
| 2026-05-05 11:02 | 33.94789 | -118.40176 | 93 ft | 2 kts | 144° |
| 2026-05-05 11:02 | 33.94784 | -118.40172 | 93 ft | 0 kts | 143° |
| 2026-05-05 11:02 | 33.94783 | -118.40171 | 93 ft | 0 kts | 143° |